< < Back
Terminal Aerodrome Forecast


Current Version              Previous Versions:   1  2  3  4  5  6  7  8  9  

Terminal Aerodrome Forecast

277
FTUS42 KJAX 210500
TAFJAX
TAF
KJAX 210525Z 2106/2206 33006KT P6SM BKN035
     FM211400 01011G16KT P6SM SCT030
     FM212100 04008KT P6SM SCT045=

Latest METAR

989
SAUS80 KWBC 211200
MTRJAX
METAR KJAX 211156Z 34005KT 10SM OVC019 14/12 A3009 RMK AO2 SLP190
T01390122 10144 20128 53009


USA.gov is the U.S. government's official web portal to all federal, state and local government web resources and services.